createdAt,value
2023-04-07T00:00:26.872Z,42.80
2023-04-07T00:02:55.915Z,42.90
2023-04-07T00:05:24.463Z,42.90
2023-04-07T00:07:57.048Z,43.00
2023-04-07T00:10:26.290Z,43.00
2023-04-07T00:12:54.553Z,43.00
2023-04-07T00:15:24.214Z,43.00
2023-04-07T00:17:52.593Z,43.10
2023-04-07T00:20:21.119Z,43.10
2023-04-07T00:22:49.649Z,43.10
2023-04-07T00:25:18.212Z,43.10
2023-04-07T00:27:46.548Z,43.10
2023-04-07T00:30:15.549Z,43.20
2023-04-07T00:32:45.641Z,43.30
2023-04-07T00:35:14.062Z,43.90
2023-04-07T00:37:42.376Z,43.20
2023-04-07T00:40:11.750Z,43.20
2023-04-07T00:42:40.028Z,43.30
2023-04-07T00:45:10.649Z,43.30
2023-04-07T00:47:39.962Z,43.40
2023-04-07T00:50:11.060Z,43.40
2023-04-07T00:52:39.388Z,43.40
2023-04-07T00:55:10.128Z,43.40
2023-04-07T00:57:38.784Z,43.40
2023-04-07T01:00:09.924Z,43.40
2023-04-07T01:02:43.830Z,43.50
2023-04-07T01:05:22.251Z,43.50
2023-04-07T01:08:02.349Z,43.60
2023-04-07T01:10:43.505Z,43.60
2023-04-07T01:13:25.437Z,43.70
2023-04-07T01:16:02.293Z,43.80
2023-04-07T01:18:34.877Z,43.80
2023-04-07T01:21:10.779Z,43.70
2023-04-07T01:24:05.019Z,43.80
2023-04-07T01:26:34.835Z,43.80
2023-04-07T01:29:31.576Z,43.70
2023-04-07T01:32:02.123Z,43.90
2023-04-07T01:34:33.207Z,43.80
2023-04-07T01:37:03.818Z,43.90
2023-04-07T01:39:33.136Z,43.90
2023-04-07T01:42:03.002Z,43.90
2023-04-07T01:44:34.726Z,43.90
2023-04-07T01:47:06.380Z,43.90
2023-04-07T01:49:36.979Z,44.00
2023-04-07T01:52:06.818Z,44.00
2023-04-07T01:54:36.308Z,44.00
2023-04-07T01:57:04.917Z,44.00
2023-04-07T01:59:36.085Z,44.10
2023-04-07T02:02:06.224Z,44.20
2023-04-07T02:04:39.442Z,44.20
2023-04-07T02:07:22.111Z,44.30
2023-04-07T02:09:58.015Z,44.30
2023-04-07T02:12:30.224Z,44.20
2023-04-07T02:15:12.705Z,44.20
2023-04-07T02:17:49.880Z,44.20
2023-04-07T02:20:19.282Z,44.30
2023-04-07T02:22:48.084Z,44.20
2023-04-07T02:25:24.273Z,44.20
2023-04-07T02:27:52.926Z,44.40
2023-04-07T02:30:22.842Z,44.30
2023-04-07T02:32:52.798Z,44.50
2023-04-07T02:35:22.230Z,44.50
2023-04-07T02:37:51.383Z,44.50
2023-04-07T02:40:19.951Z,45.20
2023-04-07T02:42:48.359Z,44.60
2023-04-07T02:45:17.041Z,44.60
2023-04-07T02:47:46.819Z,44.60
2023-04-07T02:50:15.384Z,44.60
2023-04-07T02:52:43.657Z,44.60
2023-04-07T02:55:15.384Z,44.70
2023-04-07T02:57:43.740Z,44.70
2023-04-07T03:00:41.406Z,44.80
2023-04-07T03:03:18.188Z,44.80
2023-04-07T03:05:58.881Z,44.80
2023-04-07T03:08:28.426Z,44.80
2023-04-07T03:10:57.354Z,44.80
2023-04-07T03:13:30.937Z,44.90
2023-04-07T03:15:59.371Z,44.90
2023-04-07T03:18:33.932Z,44.90
2023-04-07T03:21:03.035Z,44.90
2023-04-07T03:23:32.323Z,44.90
2023-04-07T03:26:01.430Z,45.00
2023-04-07T03:28:34.430Z,45.00
2023-04-07T03:31:03.712Z,45.00
2023-04-07T03:33:33.437Z,45.00
2023-04-07T03:36:01.803Z,45.10
2023-04-07T03:38:31.107Z,45.10
2023-04-07T03:41:03.401Z,45.10
2023-04-07T03:43:32.284Z,45.10
2023-04-07T03:46:01.168Z,45.00
2023-04-07T03:48:29.813Z,45.10
2023-04-07T03:51:10.441Z,45.10
2023-04-07T03:53:39.843Z,45.20
2023-04-07T03:56:19.522Z,45.20
2023-04-07T03:58:50.947Z,45.10
2023-04-07T04:01:27.470Z,45.10
2023-04-07T04:03:57.837Z,45.10
2023-04-07T04:06:31.377Z,45.20
2023-04-07T04:09:08.061Z,45.20
2023-04-07T04:11:40.565Z,45.30
2023-04-07T04:14:09.093Z,45.30
2023-04-07T04:16:38.687Z,45.30
2023-04-07T04:19:16.329Z,45.30
2023-04-07T04:21:46.144Z,45.40
2023-04-07T04:24:15.792Z,45.40
2023-04-07T04:26:45.432Z,45.40
2023-04-07T04:29:14.949Z,45.30
2023-04-07T04:31:45.098Z,45.30
2023-04-07T04:34:13.776Z,45.30
2023-04-07T04:36:45.153Z,45.30
2023-04-07T04:39:13.952Z,45.40
2023-04-07T04:41:42.361Z,45.30
2023-04-07T04:44:13.336Z,45.40
2023-04-07T04:46:43.621Z,45.50
2023-04-07T04:49:12.299Z,45.50
2023-04-07T04:51:41.003Z,45.50
2023-04-07T04:54:17.374Z,45.60
2023-04-07T04:56:46.724Z,45.80
2023-04-07T04:59:15.007Z,45.60
2023-04-07T05:01:54.083Z,45.60
2023-04-07T05:04:22.692Z,45.70
2023-04-07T05:07:01.848Z,45.80
2023-04-07T05:09:33.611Z,45.60
2023-04-07T05:12:02.598Z,45.70
2023-04-07T05:14:36.151Z,45.70
2023-04-07T05:17:07.818Z,45.70
2023-04-07T05:19:36.288Z,45.70
2023-04-07T05:22:12.544Z,45.70
2023-04-07T05:24:48.053Z,45.70
2023-04-07T05:27:16.662Z,45.80
2023-04-07T05:29:46.542Z,45.80
2023-04-07T05:32:23.545Z,45.80
2023-04-07T05:34:52.981Z,45.80
2023-04-07T05:37:22.267Z,45.80
2023-04-07T05:39:52.671Z,45.80
2023-04-07T05:42:21.177Z,45.90
2023-04-07T05:44:52.972Z,45.90
2023-04-07T05:47:24.192Z,45.90
2023-04-07T05:49:52.868Z,45.90
2023-04-07T05:52:21.636Z,46.00
2023-04-07T05:54:58.324Z,46.00
2023-04-07T05:57:30.043Z,46.10
2023-04-07T06:00:00.565Z,46.10
2023-04-07T06:02:29.170Z,46.10
2023-04-07T06:04:58.448Z,46.20
2023-04-07T06:07:26.799Z,46.30
2023-04-07T06:09:55.111Z,46.40
2023-04-07T06:12:24.751Z,46.50
2023-04-07T06:14:55.324Z,46.50
2023-04-07T06:17:23.757Z,46.50
2023-04-07T06:19:52.247Z,46.70
2023-04-07T06:22:20.691Z,46.60
2023-04-07T06:24:49.058Z,46.60
2023-04-07T06:27:18.495Z,46.50
2023-04-07T06:29:51.395Z,46.60
2023-04-07T06:32:20.247Z,46.60
2023-04-07T06:34:48.586Z,46.60
2023-04-07T06:37:17.186Z,46.60
2023-04-07T06:39:45.869Z,46.60
2023-04-07T06:42:14.162Z,46.70
2023-04-07T06:44:53.363Z,46.70
2023-04-07T06:47:21.927Z,46.80
2023-04-07T06:49:50.525Z,46.70
2023-04-07T06:52:18.827Z,46.70
2023-04-07T06:54:47.105Z,46.70
2023-04-07T06:57:15.645Z,46.80
2023-04-07T06:59:44.032Z,46.80
2023-04-07T07:02:13.707Z,46.70
2023-04-07T07:04:42.126Z,46.80
2023-04-07T07:07:10.480Z,46.70
2023-04-07T07:09:38.765Z,46.70
2023-04-07T07:12:07.503Z,46.70
2023-04-07T07:14:35.840Z,46.70
2023-04-07T07:17:04.344Z,46.70
2023-04-07T07:19:34.098Z,46.70
2023-04-07T07:22:04.221Z,46.80
2023-04-07T07:24:34.116Z,46.80
2023-04-07T07:27:03.549Z,46.80
2023-04-07T07:29:31.870Z,46.80
2023-04-07T07:32:00.388Z,47.30
2023-04-07T07:34:28.803Z,46.80
2023-04-07T07:36:59.264Z,46.80
2023-04-07T07:39:28.212Z,46.80
2023-04-07T07:41:57.295Z,46.90
2023-04-07T07:44:25.642Z,47.00
2023-04-07T07:46:53.968Z,46.90
2023-04-07T07:49:22.549Z,46.90
2023-04-07T07:51:50.826Z,46.80
2023-04-07T07:54:20.497Z,46.80
2023-04-07T07:56:48.836Z,46.80
2023-04-07T07:59:17.849Z,46.80
2023-04-07T08:01:46.406Z,46.70
2023-04-07T08:04:14.894Z,46.60
2023-04-07T08:06:43.215Z,46.60
2023-04-07T08:09:11.559Z,46.50
2023-04-07T08:11:41.577Z,46.50
2023-04-07T08:14:10.000Z,46.40
2023-04-07T08:16:39.309Z,46.30
2023-04-07T08:19:07.933Z,46.20
2023-04-07T08:21:36.255Z,46.20
2023-04-07T08:24:04.987Z,46.20
2023-04-07T08:26:33.567Z,46.20
2023-04-07T08:29:03.310Z,46.00
2023-04-07T08:31:31.650Z,45.80
2023-04-07T08:34:00.150Z,45.70
2023-04-07T08:36:28.960Z,45.70
2023-04-07T08:38:57.930Z,45.70
2023-04-07T08:41:32.628Z,45.60
2023-04-07T08:44:04.765Z,45.50
2023-04-07T08:46:35.413Z,45.50
2023-04-07T08:49:04.597Z,45.50
2023-04-07T08:51:34.318Z,45.40
2023-04-07T08:54:13.036Z,45.30
2023-04-07T08:56:43.105Z,45.20
2023-04-07T08:59:15.308Z,45.10
2023-04-07T09:01:43.847Z,45.10
2023-04-07T09:04:12.497Z,45.10
2023-04-07T09:06:40.954Z,44.90
2023-04-07T09:09:09.387Z,44.80
2023-04-07T09:11:40.113Z,44.80
2023-04-07T09:14:08.936Z,44.90
2023-04-07T09:16:38.970Z,44.90
2023-04-07T09:19:07.677Z,45.30
2023-04-07T09:21:53.540Z,44.60
2023-04-07T09:24:23.946Z,44.50
2023-04-07T09:26:52.351Z,44.50
2023-04-07T09:29:22.210Z,44.50
2023-04-07T09:31:55.119Z,44.60
2023-04-07T09:34:28.794Z,44.40
2023-04-07T09:36:58.316Z,44.20
2023-04-07T09:39:27.425Z,43.80
2023-04-07T09:41:56.176Z,43.40
2023-04-07T09:44:26.467Z,43.20
2023-04-07T09:46:58.410Z,43.10
2023-04-07T09:49:27.608Z,42.60
2023-04-07T09:51:58.243Z,42.80
2023-04-07T09:54:37.625Z,42.70
2023-04-07T09:57:08.695Z,42.40
2023-04-07T09:59:39.749Z,42.70
2023-04-07T10:02:10.222Z,42.90
2023-04-07T10:04:40.240Z,42.80
2023-04-07T10:07:08.635Z,42.60
2023-04-07T10:09:36.957Z,42.20
2023-04-07T10:12:06.160Z,41.70
2023-04-07T10:14:35.007Z,41.90
2023-04-07T10:17:05.429Z,41.90
2023-04-07T10:19:37.342Z,41.60
2023-04-07T10:22:07.375Z,41.50
2023-04-07T10:24:51.024Z,41.70
2023-04-07T10:27:30.952Z,41.20
2023-04-07T10:30:00.290Z,41.20
2023-04-07T10:32:28.668Z,41.00
2023-04-07T10:35:01.128Z,40.70
2023-04-07T10:37:29.601Z,40.70
2023-04-07T10:40:29.539Z,40.70
2023-04-07T10:42:58.108Z,40.20
2023-04-07T10:45:59.757Z,40.60
2023-04-07T10:48:33.383Z,40.10
2023-04-07T10:51:19.343Z,40.20
2023-04-07T10:54:22.841Z,39.60
2023-04-07T10:57:12.290Z,39.80
2023-04-07T10:59:47.109Z,39.40
2023-04-07T11:02:40.091Z,39.60
2023-04-07T11:05:09.171Z,38.10
2023-04-07T11:08:02.550Z,39.20
2023-04-07T11:10:30.942Z,38.70
2023-04-07T11:13:01.571Z,38.90
2023-04-07T11:15:29.992Z,39.20
2023-04-07T11:18:17.428Z,38.90
2023-04-07T11:20:49.468Z,38.50
2023-04-07T11:23:21.649Z,38.40
2023-04-07T11:25:54.849Z,38.40
2023-04-07T11:28:23.267Z,38.30
2023-04-07T11:30:54.134Z,38.40
2023-04-07T11:33:25.102Z,38.40
2023-04-07T11:35:56.888Z,38.30
2023-04-07T11:38:29.540Z,38.40
2023-04-07T11:40:58.597Z,37.50
2023-04-07T11:43:28.978Z,37.30
2023-04-07T11:46:08.994Z,37.80
2023-04-07T11:48:39.759Z,37.90
2023-04-07T11:51:08.704Z,38.20
2023-04-07T11:53:39.891Z,38.20
2023-04-07T11:56:12.112Z,38.00
2023-04-07T11:58:40.736Z,37.60
2023-04-07T12:01:09.597Z,37.70
2023-04-07T12:03:39.133Z,37.80
2023-04-07T12:06:07.800Z,37.60
2023-04-07T12:08:43.021Z,37.70
2023-04-07T12:11:12.322Z,37.60
2023-04-07T12:13:41.432Z,37.30
2023-04-07T12:16:09.827Z,37.40
2023-04-07T12:18:38.171Z,37.50
2023-04-07T12:21:06.844Z,37.50
2023-04-07T12:23:35.192Z,37.60
2023-04-07T12:26:05.115Z,37.60
2023-04-07T12:28:33.544Z,37.60
2023-04-07T12:31:01.893Z,37.60
2023-04-07T12:33:30.342Z,37.30
2023-04-07T12:35:59.111Z,38.00
2023-04-07T12:38:27.451Z,37.50
2023-04-07T12:40:55.779Z,37.70
2023-04-07T12:43:25.560Z,37.90
2023-04-07T12:45:54.024Z,37.80
2023-04-07T12:48:22.473Z,37.80
2023-04-07T12:50:51.150Z,37.80
2023-04-07T12:53:19.568Z,37.30
2023-04-07T12:55:50.337Z,37.10
2023-04-07T12:58:19.477Z,37.20
2023-04-07T13:00:49.136Z,37.20
2023-04-07T13:03:17.803Z,37.30
2023-04-07T13:05:46.531Z,37.50
2023-04-07T13:08:14.859Z,37.60
2023-04-07T13:10:43.661Z,37.30
2023-04-07T13:13:12.140Z,37.40
2023-04-07T13:15:40.495Z,37.20
2023-04-07T13:18:10.282Z,37.40
2023-04-07T13:20:38.840Z,37.20
2023-04-07T13:23:09.745Z,37.10
2023-04-07T13:25:38.765Z,37.00
2023-04-07T13:28:07.438Z,37.10
2023-04-07T13:30:36.448Z,36.90
2023-04-07T13:33:05.042Z,36.60
2023-04-07T13:35:36.106Z,36.70
2023-04-07T13:38:05.233Z,36.60
2023-04-07T13:40:33.562Z,36.60
2023-04-07T13:43:02.011Z,36.40
2023-04-07T13:45:30.511Z,36.30
2023-04-07T13:47:58.863Z,36.30
2023-04-07T13:50:27.409Z,36.60
2023-04-07T13:52:57.194Z,37.10
2023-04-07T13:55:25.696Z,36.50
2023-04-07T13:57:54.715Z,36.60
2023-04-07T14:00:23.258Z,36.70
2023-04-07T14:02:51.656Z,36.60
2023-04-07T14:05:19.968Z,36.40
2023-04-07T14:07:48.684Z,36.30
2023-04-07T14:10:18.580Z,36.40
2023-04-07T14:12:47.150Z,36.40
2023-04-07T14:15:17.723Z,36.40
2023-04-07T14:17:46.657Z,36.50
2023-04-07T14:20:14.949Z,36.40
2023-04-07T14:22:43.310Z,37.10
2023-04-07T14:25:12.418Z,36.50
2023-04-07T14:27:42.108Z,36.40
2023-04-07T14:30:12.171Z,36.50
2023-04-07T14:32:40.615Z,36.50
2023-04-07T14:35:10.147Z,36.40
2023-04-07T14:37:39.675Z,36.20
2023-04-07T14:40:09.980Z,36.20
2023-04-07T14:42:38.306Z,36.40
2023-04-07T14:45:09.416Z,36.30
2023-04-07T14:47:37.791Z,36.40
2023-04-07T14:50:07.413Z,36.50
2023-04-07T14:52:35.814Z,36.60
2023-04-07T14:55:04.144Z,36.50
2023-04-07T14:57:32.614Z,36.40
2023-04-07T15:00:00.984Z,36.20
2023-04-07T15:02:32.632Z,36.20
2023-04-07T15:05:01.243Z,36.00
2023-04-07T15:07:29.530Z,35.50
2023-04-07T15:09:59.685Z,35.80
2023-04-07T15:12:31.428Z,35.70
2023-04-07T15:14:59.778Z,35.90
2023-04-07T15:17:36.648Z,35.80
2023-04-07T15:20:13.286Z,35.90
2023-04-07T15:22:41.958Z,36.00
2023-04-07T15:25:10.642Z,36.10
2023-04-07T15:27:38.940Z,36.20
2023-04-07T15:30:09.180Z,36.20
2023-04-07T15:32:37.474Z,36.30
2023-04-07T15:35:06.818Z,36.20
2023-04-07T15:37:36.515Z,36.30
2023-04-07T15:40:05.470Z,36.40
2023-04-07T15:42:41.782Z,36.30
2023-04-07T15:45:11.864Z,36.40
2023-04-07T15:47:40.343Z,36.50
2023-04-07T15:50:10.716Z,36.50
2023-04-07T15:52:40.501Z,36.60
2023-04-07T15:55:09.950Z,36.60
2023-04-07T15:57:38.300Z,36.70
2023-04-07T16:00:08.488Z,36.70
2023-04-07T16:02:37.277Z,36.80
2023-04-07T16:05:06.422Z,36.90
2023-04-07T16:07:34.750Z,36.90
2023-04-07T16:10:08.100Z,37.00
2023-04-07T16:12:36.974Z,37.20
2023-04-07T16:15:06.621Z,37.10
2023-04-07T16:17:35.084Z,37.10
2023-04-07T16:20:04.459Z,37.20
2023-04-07T16:22:33.041Z,37.70
2023-04-07T16:25:01.348Z,37.20
2023-04-07T16:27:31.069Z,37.20
2023-04-07T16:29:59.314Z,37.80
2023-04-07T16:32:27.614Z,37.20
2023-04-07T16:34:55.975Z,37.20
2023-04-07T16:37:24.391Z,37.10
2023-04-07T16:42:26.471Z,37.00
2023-04-07T16:44:57.584Z,36.90
2023-04-07T16:47:27.301Z,36.80
2023-04-07T16:49:55.850Z,36.90
2023-04-07T16:52:24.686Z,36.90
2023-04-07T16:54:53.261Z,36.90
2023-04-07T16:57:21.606Z,37.00
2023-04-07T16:59:49.924Z,37.10
2023-04-07T17:02:19.954Z,37.30
2023-04-07T17:04:48.555Z,37.40
2023-04-07T17:07:17.488Z,37.40
2023-04-07T17:09:45.878Z,37.60
2023-04-07T17:12:14.982Z,37.70
2023-04-07T17:14:43.280Z,37.70
2023-04-07T17:17:11.670Z,37.60
2023-04-07T17:19:41.547Z,37.70
2023-04-07T17:22:09.929Z,37.70
2023-04-07T17:24:38.861Z,37.60
2023-04-07T17:27:07.223Z,37.70
2023-04-07T17:29:35.566Z,37.70
2023-04-07T17:32:04.021Z,37.80
2023-04-07T17:34:32.469Z,37.90
2023-04-07T17:37:02.234Z,37.80
2023-04-07T17:39:30.637Z,37.80
2023-04-07T17:41:58.975Z,37.80
2023-04-07T17:44:27.364Z,37.90
2023-04-07T17:46:55.911Z,37.90
2023-04-07T17:49:24.642Z,37.80
2023-04-07T17:51:52.956Z,37.80
2023-04-07T17:54:22.717Z,37.80
2023-04-07T17:56:51.002Z,37.90
2023-04-07T17:59:19.351Z,38.00
2023-04-07T18:01:47.999Z,38.00
2023-04-07T18:04:16.989Z,38.00
2023-04-07T18:06:45.971Z,38.00
2023-04-07T18:09:14.826Z,38.00
2023-04-07T18:11:44.508Z,38.10
2023-04-07T18:14:12.828Z,38.00
2023-04-07T18:16:41.552Z,38.00
2023-04-07T18:19:09.840Z,38.00
2023-04-07T18:21:38.165Z,38.00
2023-04-07T18:24:06.816Z,38.00
2023-04-07T18:26:37.687Z,38.00
2023-04-07T18:29:10.083Z,38.10
2023-04-07T18:31:40.023Z,38.10
2023-04-07T18:34:08.597Z,38.20
2023-04-07T18:36:37.216Z,38.30
2023-04-07T18:39:06.194Z,38.30
2023-04-07T18:41:34.518Z,38.30
2023-04-07T18:44:02.873Z,38.40
2023-04-07T18:46:32.650Z,38.40
2023-04-07T18:49:01.001Z,38.40
2023-04-07T18:51:29.709Z,38.50
2023-04-07T18:53:58.664Z,38.50
2023-04-07T18:56:28.429Z,38.60
2023-04-07T18:58:56.918Z,38.60
2023-04-07T19:01:25.679Z,38.70
2023-04-07T19:03:57.448Z,38.70
2023-04-07T19:06:25.999Z,38.80
2023-04-07T19:08:54.300Z,38.80
2023-04-07T19:11:22.643Z,38.80
2023-04-07T19:13:52.319Z,38.90
2023-04-07T19:16:21.844Z,39.00
2023-04-07T19:18:50.234Z,39.00
2023-04-07T19:21:20.311Z,39.10
2023-04-07T19:23:49.560Z,39.10
2023-04-07T19:26:18.705Z,39.10
2023-04-07T19:28:48.391Z,39.20
2023-04-07T19:31:17.462Z,39.30
2023-04-07T19:33:46.596Z,39.40
2023-04-07T19:36:15.679Z,39.40
2023-04-07T19:38:45.807Z,39.50
2023-04-07T19:41:14.233Z,39.60
2023-04-07T19:43:43.561Z,39.60
2023-04-07T19:46:12.126Z,40.30
2023-04-07T19:48:40.581Z,39.70
2023-04-07T19:51:09.650Z,39.80
2023-04-07T19:53:38.461Z,39.80
2023-04-07T19:56:08.316Z,39.90
2023-04-07T19:58:38.472Z,39.90
2023-04-07T20:01:07.573Z,39.80
2023-04-07T20:03:38.475Z,40.00
2023-04-07T20:06:07.107Z,40.00
2023-04-07T20:08:35.694Z,40.00
2023-04-07T20:11:04.430Z,40.10
2023-04-07T20:13:35.094Z,40.10
2023-04-07T20:16:04.138Z,40.20
2023-04-07T20:18:33.693Z,40.20
2023-04-07T20:21:02.796Z,40.30
2023-04-07T20:23:31.350Z,40.40
2023-04-07T20:25:59.905Z,40.40
2023-04-07T20:28:28.336Z,40.50
2023-04-07T20:30:58.069Z,40.50
2023-04-07T20:33:26.368Z,40.50
2023-04-07T20:35:54.912Z,40.60
2023-04-07T20:38:23.273Z,40.70
2023-04-07T20:40:53.101Z,40.70
2023-04-07T20:43:23.629Z,40.70
2023-04-07T20:45:53.375Z,40.70
2023-04-07T20:48:24.243Z,40.80
2023-04-07T20:50:53.596Z,40.70
2023-04-07T20:53:22.765Z,40.80
2023-04-07T20:55:51.493Z,40.80
2023-04-07T20:58:20.370Z,41.00
2023-04-07T21:00:49.255Z,41.10
2023-04-07T21:03:18.122Z,41.10
2023-04-07T21:05:50.318Z,41.20
2023-04-07T21:08:22.999Z,41.20
2023-04-07T21:10:52.767Z,41.30
2023-04-07T21:13:22.681Z,41.30
2023-04-07T21:15:51.188Z,41.30
2023-04-07T21:18:19.750Z,41.20
2023-04-07T21:20:49.766Z,41.40
2023-04-07T21:23:18.085Z,41.50
2023-04-07T21:25:47.610Z,41.50
2023-04-07T21:28:16.312Z,41.60
2023-04-07T21:30:44.889Z,41.60
2023-04-07T21:33:14.112Z,41.60
2023-04-07T21:35:42.808Z,41.70
2023-04-07T21:38:12.646Z,41.80
2023-04-07T21:40:41.384Z,41.80
2023-04-07T21:43:09.944Z,41.80
2023-04-07T21:45:38.302Z,41.80
2023-04-07T21:48:07.929Z,41.80
2023-04-07T21:50:37.984Z,41.80
2023-04-07T21:53:07.808Z,41.90
2023-04-07T21:55:38.570Z,41.80
2023-04-07T21:58:07.796Z,41.90
2023-04-07T22:00:36.559Z,41.90
2023-04-07T22:03:05.681Z,41.90
2023-04-07T22:05:35.128Z,41.90
2023-04-07T22:08:03.437Z,41.90
2023-04-07T22:10:32.795Z,41.90
2023-04-07T22:13:02.635Z,41.90
2023-04-07T22:15:31.295Z,41.90
2023-04-07T22:18:00.049Z,41.90
2023-04-07T22:20:28.456Z,41.80
2023-04-07T22:22:57.832Z,41.90
2023-04-07T22:25:26.734Z,41.90
2023-04-07T22:27:56.828Z,41.90
2023-04-07T22:30:27.338Z,41.90
2023-04-07T22:32:55.762Z,42.00
2023-04-07T22:35:24.158Z,42.00
2023-04-07T22:37:52.445Z,42.20
2023-04-07T22:40:20.857Z,42.20
2023-04-07T22:42:49.118Z,42.30
2023-04-07T22:45:17.644Z,42.40
2023-04-07T22:47:47.416Z,42.50
2023-04-07T22:50:15.787Z,42.50
2023-04-07T22:52:44.052Z,42.50
2023-04-07T22:55:12.403Z,42.50
2023-04-07T22:57:40.803Z,42.60
2023-04-07T23:00:10.823Z,42.60
2023-04-07T23:02:39.476Z,42.70
2023-04-07T23:05:10.670Z,42.70
2023-04-07T23:07:39.040Z,42.80
2023-04-07T23:10:09.789Z,42.80
2023-04-07T23:12:38.055Z,42.90
2023-04-07T23:15:07.814Z,43.00
2023-04-07T23:17:36.835Z,43.00
2023-04-07T23:20:06.077Z,43.10
2023-04-07T23:22:35.992Z,43.20
2023-04-07T23:25:04.949Z,43.40
2023-04-07T23:27:33.834Z,43.30
2023-04-07T23:30:02.275Z,44.00
2023-04-07T23:32:30.740Z,43.60
2023-04-07T23:34:59.092Z,43.50
2023-04-07T23:37:27.410Z,43.60
2023-04-07T23:39:57.149Z,43.70
2023-04-07T23:42:25.586Z,43.70
2023-04-07T23:44:53.960Z,43.80
2023-04-07T23:47:22.884Z,43.80
2023-04-07T23:49:51.778Z,44.00
2023-04-07T23:52:21.917Z,44.00
2023-04-07T23:54:50.367Z,44.10
2023-04-07T23:57:20.122Z,44.20
2023-04-07T23:59:48.489Z,44.40
